createdAt,value
2018-09-12T00:02:21.134Z,15.58
2018-09-12T00:04:50.507Z,15.51
2018-09-12T00:07:19.894Z,15.54
2018-09-12T00:09:49.305Z,15.51
2018-09-12T00:12:18.667Z,15.45
2018-09-12T00:14:48.031Z,15.38
2018-09-12T00:17:17.472Z,15.33
2018-09-12T00:19:46.848Z,15.29
2018-09-12T00:22:16.214Z,15.26
2018-09-12T00:24:45.667Z,15.20
2018-09-12T00:27:15.070Z,15.19
2018-09-12T00:29:44.443Z,15.17
2018-09-12T00:32:13.823Z,15.18
2018-09-12T00:34:43.206Z,15.15
2018-09-12T00:37:12.566Z,15.12
2018-09-12T00:39:41.947Z,15.12
2018-09-12T00:42:11.334Z,14.98
2018-09-12T00:44:40.715Z,15.06
2018-09-12T00:47:10.067Z,14.94
2018-09-12T00:49:39.449Z,15.02
2018-09-12T00:52:08.819Z,15.01
2018-09-12T00:54:38.190Z,15.04
2018-09-12T00:57:07.654Z,15.00
2018-09-12T00:59:37.227Z,14.95
2018-09-12T01:02:06.714Z,14.93
2018-09-12T01:04:36.194Z,14.89
2018-09-12T01:07:05.588Z,14.86
2018-09-12T01:09:34.955Z,14.80
2018-09-12T01:12:04.331Z,14.73
2018-09-12T01:14:34.173Z,14.68
2018-09-12T01:17:03.679Z,14.55
2018-09-12T01:19:33.070Z,14.49
2018-09-12T01:22:02.461Z,14.49
2018-09-12T01:24:31.826Z,14.46
2018-09-12T01:27:01.194Z,14.48
2018-09-12T01:29:30.593Z,14.52
2018-09-12T01:31:59.967Z,14.46
2018-09-12T01:34:29.335Z,14.42
2018-09-12T01:36:58.710Z,14.37
2018-09-12T01:39:28.090Z,14.35
2018-09-12T01:41:57.478Z,14.26
2018-09-12T01:44:26.861Z,14.19
2018-09-12T01:46:56.254Z,14.12
2018-09-12T01:49:25.648Z,14.11
2018-09-12T01:51:54.999Z,13.95
2018-09-12T01:54:24.354Z,13.89
2018-09-12T01:56:53.738Z,13.91
2018-09-12T01:59:23.113Z,13.85
2018-09-12T02:01:52.475Z,13.78
2018-09-12T02:04:21.855Z,13.71
2018-09-12T02:06:51.238Z,13.63
2018-09-12T02:09:20.588Z,13.72
2018-09-12T02:11:49.966Z,13.69
2018-09-12T02:14:19.342Z,13.67
2018-09-12T02:16:48.713Z,13.63
2018-09-12T02:19:18.074Z,13.60
2018-09-12T02:21:47.459Z,13.58
2018-09-12T02:24:16.822Z,13.62
2018-09-12T02:26:46.218Z,13.60
2018-09-12T02:29:15.599Z,13.61
2018-09-12T02:31:44.964Z,13.57
2018-09-12T02:34:14.347Z,13.52
2018-09-12T02:36:43.749Z,13.49
2018-09-12T02:39:13.102Z,13.52
2018-09-12T02:41:42.473Z,13.52
2018-09-12T02:44:11.940Z,13.48
2018-09-12T02:46:41.230Z,13.42
2018-09-12T02:49:10.591Z,13.38
2018-09-12T02:51:39.975Z,13.27
2018-09-12T02:54:09.327Z,13.28
2018-09-12T02:56:38.706Z,13.27
2018-09-12T02:59:08.093Z,13.28
2018-09-12T03:01:37.471Z,13.22
2018-09-12T03:04:28.894Z,13.09
2018-09-12T03:06:58.290Z,13.01
2018-09-12T03:09:27.653Z,13.01
2018-09-12T03:11:57.026Z,12.93
2018-09-12T03:14:26.435Z,12.71
2018-09-12T03:16:55.810Z,12.75
2018-09-12T03:19:25.182Z,12.76
2018-09-12T03:21:54.566Z,12.76
2018-09-12T03:24:23.997Z,12.73
2018-09-12T03:26:53.374Z,12.78
2018-09-12T03:29:22.746Z,12.75
2018-09-12T03:31:52.115Z,12.80
2018-09-12T03:34:21.582Z,12.72
2018-09-12T03:36:51.099Z,12.78
2018-09-12T03:39:20.467Z,12.76
2018-09-12T03:41:49.842Z,12.65
2018-09-12T03:44:19.215Z,12.84
2018-09-12T03:46:49.214Z,12.86
2018-09-12T03:49:18.618Z,12.84
2018-09-12T03:51:47.970Z,12.85
2018-09-12T03:54:17.383Z,12.76
2018-09-12T03:56:46.754Z,12.71
2018-09-12T03:59:16.118Z,12.66
2018-09-12T04:01:45.504Z,12.53
2018-09-12T04:04:14.879Z,12.45
2018-09-12T04:06:44.339Z,12.34
2018-09-12T04:09:13.724Z,12.28
2018-09-12T04:11:43.119Z,12.29
2018-09-12T04:14:12.487Z,12.27
2018-09-12T04:16:41.922Z,12.25
2018-09-12T04:19:11.354Z,12.21
2018-09-12T04:21:40.731Z,12.19
2018-09-12T04:24:10.225Z,12.19
2018-09-12T04:26:39.551Z,12.22
2018-09-12T04:29:08.918Z,12.21
2018-09-12T04:31:38.302Z,12.15
2018-09-12T04:34:07.770Z,12.12
2018-09-12T04:36:37.150Z,12.09
2018-09-12T04:39:09.555Z,12.06
2018-09-12T04:41:38.927Z,11.99
2018-09-12T04:44:08.311Z,12.00
2018-09-12T04:46:37.801Z,11.95
2018-09-12T04:49:07.507Z,11.88
2018-09-12T04:51:36.892Z,11.90
2018-09-12T04:54:09.414Z,11.91
2018-09-12T04:56:38.790Z,11.90
2018-09-12T04:59:08.170Z,11.92
2018-09-12T05:01:37.554Z,11.93
2018-09-12T05:04:06.967Z,11.88
2018-09-12T05:06:36.351Z,11.84
2018-09-12T05:09:09.087Z,11.79
2018-09-12T05:11:38.458Z,11.71
2018-09-12T05:14:07.834Z,11.77
2018-09-12T05:16:37.312Z,11.78
2018-09-12T05:19:06.660Z,11.81
2018-09-12T05:21:36.080Z,11.81
2018-09-12T05:24:05.466Z,11.88
2018-09-12T05:26:34.889Z,11.91
2018-09-12T05:29:04.289Z,11.93
2018-09-12T05:31:33.762Z,12.01
2018-09-12T05:34:03.140Z,12.10
2018-09-12T05:36:32.523Z,12.08
2018-09-12T05:39:01.916Z,12.20
2018-09-12T05:41:31.303Z,12.29
2018-09-12T05:44:00.694Z,12.39
2018-09-12T05:46:30.070Z,12.52
2018-09-12T05:48:59.446Z,12.61
2018-09-12T05:51:28.825Z,12.67
2018-09-12T05:53:58.210Z,12.67
2018-09-12T05:56:27.585Z,12.68
2018-09-12T05:58:57.251Z,12.73
2018-09-12T06:01:26.678Z,12.83
2018-09-12T06:03:56.061Z,12.88
2018-09-12T06:06:25.469Z,13.03
2018-09-12T06:08:54.822Z,13.15
2018-09-12T06:11:24.273Z,13.24
2018-09-12T06:13:53.870Z,13.28
2018-09-12T06:16:23.278Z,13.43
2018-09-12T06:18:52.654Z,13.49
2018-09-12T06:21:22.055Z,13.58
2018-09-12T06:23:51.418Z,13.74
2018-09-12T06:26:20.812Z,13.90
2018-09-12T06:28:50.206Z,14.09
2018-09-12T06:31:19.635Z,14.18
2018-09-12T06:33:49.007Z,14.30
2018-09-12T06:36:18.382Z,14.42
2018-09-12T06:38:47.857Z,14.53
2018-09-12T06:41:17.182Z,14.56
2018-09-12T06:43:46.550Z,14.73
2018-09-12T06:46:15.930Z,14.88
2018-09-12T06:48:45.335Z,15.03
2018-09-12T06:51:14.751Z,15.17
2018-09-12T06:53:44.131Z,15.30
2018-09-12T06:56:14.866Z,15.39
2018-09-12T06:58:44.255Z,14.83
2018-09-12T07:01:15.008Z,15.59
2018-09-12T07:03:44.450Z,15.68
2018-09-12T07:06:14.828Z,15.77
2018-09-12T07:08:44.215Z,15.98
2018-09-12T07:11:14.850Z,16.10
2018-09-12T07:13:44.231Z,16.27
2018-09-12T07:16:14.842Z,16.31
2018-09-12T07:18:44.466Z,16.52
2018-09-12T07:21:15.383Z,16.65
2018-09-12T07:23:45.074Z,16.79
2018-09-12T07:26:15.262Z,17.02
2018-09-12T07:28:45.006Z,17.18
2018-09-12T07:31:15.354Z,17.30
2018-09-12T07:33:45.169Z,17.50
2018-09-12T07:36:15.278Z,17.65
2018-09-12T07:38:44.974Z,17.85
2018-09-12T07:41:15.283Z,18.06
2018-09-12T07:43:45.062Z,18.21
2018-09-12T07:46:15.360Z,18.35
2018-09-12T07:48:45.063Z,18.57
2018-09-12T07:51:15.431Z,18.68
2018-09-12T07:53:45.126Z,18.93
2018-09-12T07:56:15.328Z,18.96
2018-09-12T07:58:44.854Z,19.05
2018-09-12T08:01:15.257Z,19.28
2018-09-12T08:03:44.949Z,19.49
2018-09-12T08:06:15.305Z,19.71
2018-09-12T08:08:44.876Z,19.79
2018-09-12T08:11:15.421Z,19.86
2018-09-12T08:13:45.131Z,20.07
2018-09-12T08:16:15.566Z,20.20
2018-09-12T08:18:44.950Z,20.26
2018-09-12T08:21:15.230Z,20.42
2018-09-12T08:23:44.634Z,20.60
2018-09-12T08:26:15.260Z,20.67
2018-09-12T08:28:44.631Z,20.86
2018-09-12T08:31:15.299Z,21.07
2018-09-12T08:33:44.757Z,21.07
2018-09-12T08:36:15.415Z,21.08
2018-09-12T08:38:44.779Z,21.25
2018-09-12T08:41:15.406Z,21.41
2018-09-12T08:43:44.818Z,21.58
2018-09-12T08:46:15.446Z,21.49
2018-09-12T08:48:44.815Z,21.68
2018-09-12T08:51:15.447Z,21.82
2018-09-12T08:53:44.868Z,22.11
2018-09-12T08:56:15.483Z,22.25
2018-09-12T08:58:44.843Z,22.43
2018-09-12T09:01:15.515Z,22.60
2018-09-12T09:03:44.836Z,22.62
2018-09-12T09:06:14.215Z,22.75
2018-09-12T09:08:43.625Z,22.99
2018-09-12T09:11:12.993Z,23.10
2018-09-12T09:13:42.362Z,23.34
2018-09-12T09:16:11.769Z,23.41
2018-09-12T09:18:41.146Z,23.56
2018-09-12T09:21:10.511Z,23.82
2018-09-12T09:23:40.026Z,23.97
2018-09-12T09:26:09.478Z,23.98
2018-09-12T09:28:38.862Z,24.18
2018-09-12T09:31:08.226Z,24.33
2018-09-12T09:33:37.638Z,24.44
2018-09-12T09:36:07.058Z,24.48
2018-09-12T09:38:36.427Z,24.51
2018-09-12T09:41:05.938Z,24.56
2018-09-12T09:43:35.283Z,24.64
2018-09-12T09:46:04.638Z,24.49
2018-09-12T09:48:34.051Z,24.75
2018-09-12T09:51:03.569Z,24.82
2018-09-12T09:53:32.950Z,24.95
2018-09-12T09:56:02.741Z,25.05
2018-09-12T09:58:32.180Z,24.73
2018-09-12T10:01:06.763Z,25.21
2018-09-12T10:03:42.659Z,25.41
2018-09-12T10:06:17.166Z,25.62
2018-09-12T10:08:52.124Z,25.78
2018-09-12T10:11:21.598Z,26.05
2018-09-12T10:13:51.438Z,25.95
2018-09-12T10:16:21.543Z,26.13
2018-09-12T10:18:50.946Z,26.42
2018-09-12T10:21:20.428Z,26.60
2018-09-12T10:23:49.894Z,26.56
2018-09-12T10:26:19.268Z,26.48
2018-09-12T10:28:48.646Z,26.57
2018-09-12T10:31:18.039Z,26.46
2018-09-12T10:33:47.400Z,26.34
2018-09-12T10:36:16.802Z,26.29
2018-09-12T10:38:46.222Z,25.97
2018-09-12T10:41:16.630Z,26.28
2018-09-12T10:43:46.039Z,26.26
2018-09-12T10:46:16.658Z,26.49
2018-09-12T10:48:46.078Z,26.49
2018-09-12T10:51:16.681Z,26.29
2018-09-12T10:53:46.134Z,26.56
2018-09-12T10:56:16.759Z,26.49
2018-09-12T10:58:46.262Z,26.62
2018-09-12T11:01:16.862Z,26.51
2018-09-12T11:03:46.238Z,26.18
2018-09-12T11:06:16.835Z,26.59
2018-09-12T11:08:46.219Z,26.31
2018-09-12T11:11:16.840Z,26.19
2018-09-12T11:13:46.263Z,26.45
2018-09-12T11:16:16.870Z,26.46
2018-09-12T11:18:46.255Z,26.58
2018-09-12T11:21:16.910Z,26.45
2018-09-12T11:23:46.292Z,26.46
2018-09-12T11:26:16.947Z,26.61
2018-09-12T11:28:46.396Z,26.67
2018-09-12T11:31:17.034Z,26.81
2018-09-12T11:33:46.555Z,26.31
2018-09-12T11:36:17.252Z,26.57
2018-09-12T11:38:46.613Z,26.88
2018-09-12T11:41:17.062Z,26.91
2018-09-12T11:43:46.428Z,26.89
2018-09-12T11:46:17.051Z,27.04
2018-09-12T11:48:46.556Z,26.74
2018-09-12T11:51:17.158Z,26.95
2018-09-12T11:53:46.582Z,27.02
2018-09-12T11:56:17.196Z,27.34
2018-09-12T11:58:46.563Z,27.48
2018-09-12T12:01:17.166Z,27.55
2018-09-12T12:03:46.594Z,27.69
2018-09-12T12:06:17.259Z,28.09
2018-09-12T12:08:46.618Z,28.18
2018-09-12T12:11:17.236Z,27.95
2018-09-12T12:13:46.934Z,28.08
2018-09-12T12:16:17.412Z,28.21
2018-09-12T12:18:46.807Z,28.45
2018-09-12T12:21:17.422Z,28.87
2018-09-12T12:23:46.818Z,28.63
2018-09-12T12:26:17.413Z,28.77
2018-09-12T12:28:46.799Z,28.57
2018-09-12T12:31:17.390Z,28.83
2018-09-12T12:33:46.783Z,28.74
2018-09-12T12:36:17.370Z,28.50
2018-09-12T12:38:46.778Z,28.66
2018-09-12T12:41:17.452Z,28.43
2018-09-12T12:43:46.784Z,28.90
2018-09-12T12:46:17.433Z,29.19
2018-09-12T12:48:46.798Z,29.47
2018-09-12T12:51:17.402Z,29.47
2018-09-12T12:53:46.782Z,29.61
2018-09-12T12:56:17.435Z,29.36
2018-09-12T12:58:46.993Z,29.71
2018-09-12T13:01:17.433Z,29.74
2018-09-12T13:03:46.814Z,29.49
2018-09-12T13:06:17.471Z,30.07
2018-09-12T13:08:46.835Z,29.92
2018-09-12T13:11:17.454Z,30.01
2018-09-12T13:13:46.826Z,29.72
2018-09-12T13:16:17.538Z,30.45
2018-09-12T13:18:46.895Z,30.83
2018-09-12T13:21:17.579Z,31.32
2018-09-12T13:23:46.924Z,31.40
2018-09-12T13:26:17.610Z,31.47
2018-09-12T13:28:46.992Z,31.38
2018-09-12T13:31:17.470Z,31.69
2018-09-12T13:33:46.872Z,31.61
2018-09-12T13:36:17.574Z,31.44
2018-09-12T13:38:46.946Z,31.61
2018-09-12T13:41:17.475Z,31.95
2018-09-12T13:43:46.855Z,31.54
2018-09-12T13:46:17.459Z,31.87
2018-09-12T13:48:46.994Z,31.68
2018-09-12T13:51:17.450Z,31.49
2018-09-12T13:53:46.830Z,31.61
2018-09-12T13:56:17.509Z,31.88
2018-09-12T13:58:46.866Z,32.27
2018-09-12T14:01:17.478Z,33.16
2018-09-12T14:03:46.906Z,32.36
2018-09-12T14:06:17.518Z,32.12
2018-09-12T14:08:46.923Z,30.42
2018-09-12T14:11:17.522Z,30.92
2018-09-12T14:13:47.370Z,31.50
2018-09-12T14:16:17.527Z,31.27
2018-09-12T14:18:46.914Z,32.24
2018-09-12T14:21:17.555Z,32.38
2018-09-12T14:23:46.938Z,33.24
2018-09-12T14:26:17.574Z,34.06
2018-09-12T14:28:47.020Z,34.22
2018-09-12T14:31:17.621Z,33.60
2018-09-12T14:33:46.990Z,32.11
2018-09-12T14:36:17.578Z,32.17
2018-09-12T14:38:46.966Z,31.92
2018-09-12T14:41:16.346Z,32.03
2018-09-12T14:43:45.711Z,31.90
2018-09-12T14:46:15.339Z,31.61
2018-09-12T14:48:44.738Z,32.06
2018-09-12T14:51:14.102Z,31.82
2018-09-12T14:53:43.526Z,31.74
2018-09-12T14:56:12.915Z,32.35
2018-09-12T14:58:42.278Z,33.35
2018-09-12T15:01:11.811Z,33.40
2018-09-12T15:03:41.261Z,33.04
2018-09-12T15:06:10.626Z,31.98
2018-09-12T15:08:40.023Z,32.75
2018-09-12T15:11:09.405Z,31.76
2018-09-12T15:13:45.522Z,31.33
2018-09-12T15:16:14.914Z,31.35
2018-09-12T15:18:44.346Z,30.59
2018-09-12T15:21:13.728Z,29.71
2018-09-12T15:23:43.161Z,29.51
2018-09-12T15:26:12.526Z,30.27
2018-09-12T15:28:41.890Z,30.62
2018-09-12T15:31:11.306Z,31.13
2018-09-12T15:33:41.558Z,30.96
2018-09-12T15:36:10.930Z,30.63
2018-09-12T15:38:40.314Z,30.73
2018-09-12T15:41:09.690Z,30.39
2018-09-12T15:43:39.092Z,30.31
2018-09-12T15:46:08.490Z,30.97
2018-09-12T15:48:37.858Z,31.90
2018-09-12T15:51:07.310Z,32.23
2018-09-12T15:53:36.738Z,31.18
2018-09-12T15:56:06.114Z,31.00
2018-09-12T15:58:35.583Z,31.26
2018-09-12T16:01:04.986Z,31.79
2018-09-12T16:03:34.344Z,32.28
2018-09-12T16:06:03.738Z,32.07
2018-09-12T16:08:33.106Z,31.60
2018-09-12T16:11:02.474Z,32.46
2018-09-12T16:13:31.859Z,33.47
2018-09-12T16:16:01.253Z,34.08
2018-09-12T16:18:30.642Z,34.90
2018-09-12T16:21:00.034Z,35.13
2018-09-12T16:23:29.405Z,33.63
2018-09-12T16:25:58.782Z,34.09
2018-09-12T16:28:28.218Z,34.20
2018-09-12T16:30:57.578Z,32.81
2018-09-12T16:33:27.013Z,30.84
2018-09-12T16:35:56.373Z,29.23
2018-09-12T16:38:25.758Z,27.89
2018-09-12T16:40:55.158Z,27.14
2018-09-12T16:43:24.527Z,26.55
2018-09-12T16:45:53.910Z,26.46
2018-09-12T16:48:23.284Z,25.80
2018-09-12T16:50:52.670Z,25.39
2018-09-12T16:53:22.054Z,25.37
2018-09-12T16:55:51.422Z,25.04
2018-09-12T16:58:20.790Z,24.88
2018-09-12T17:00:50.183Z,24.76
2018-09-12T17:03:19.541Z,24.52
2018-09-12T17:05:48.912Z,24.38
2018-09-12T17:08:18.297Z,24.06
2018-09-12T17:10:47.674Z,23.81
2018-09-12T17:13:17.083Z,23.80
2018-09-12T17:15:46.651Z,23.74
2018-09-12T17:18:16.290Z,23.26
2018-09-12T17:20:45.720Z,23.15
2018-09-12T17:23:15.090Z,23.12
2018-09-12T17:25:44.669Z,23.01
2018-09-12T17:28:14.043Z,22.87
2018-09-12T17:30:43.443Z,22.65
2018-09-12T17:33:12.852Z,22.45
2018-09-12T17:35:42.439Z,22.45
2018-09-12T17:38:11.822Z,22.31
2018-09-12T17:40:41.249Z,22.27
2018-09-12T17:43:10.653Z,22.19
2018-09-12T17:45:40.057Z,21.79
2018-09-12T17:48:09.507Z,21.52
2018-09-12T17:50:39.171Z,21.30
2018-09-12T17:53:08.577Z,21.44
2018-09-12T17:55:38.031Z,21.33
2018-09-12T17:58:07.394Z,21.05
2018-09-12T18:00:37.384Z,20.97
2018-09-12T18:03:07.517Z,20.87
2018-09-12T18:05:37.044Z,20.82
2018-09-12T18:08:06.594Z,20.61
2018-09-12T18:10:36.125Z,20.49
2018-09-12T18:13:05.618Z,20.55
2018-09-12T18:15:35.106Z,20.45
2018-09-12T18:18:04.611Z,20.39
2018-09-12T18:20:34.146Z,20.34
2018-09-12T18:23:04.215Z,20.23
2018-09-12T18:25:34.723Z,20.03
2018-09-12T18:28:04.647Z,19.92
2018-09-12T18:30:35.001Z,19.88
2018-09-12T18:33:06.227Z,19.90
2018-09-12T18:35:38.398Z,19.70
2018-09-12T18:38:10.633Z,19.80
2018-09-12T18:40:42.713Z,19.75
2018-09-12T18:43:14.986Z,19.82
2018-09-12T18:45:47.324Z,19.79
2018-09-12T18:48:19.667Z,19.79
2018-09-12T18:50:52.012Z,19.85
2018-09-12T18:53:24.140Z,19.70
2018-09-12T18:55:56.477Z,19.55
2018-09-12T18:58:28.734Z,19.39
2018-09-12T19:01:01.050Z,19.40
2018-09-12T19:03:33.183Z,19.27
2018-09-12T19:06:05.348Z,19.02
2018-09-12T19:08:37.722Z,19.20
2018-09-12T19:11:09.849Z,19.15
2018-09-12T19:13:42.367Z,19.08
2018-09-12T19:16:15.401Z,18.96
2018-09-12T19:18:47.882Z,18.45
2018-09-12T19:21:20.219Z,18.98
2018-09-12T19:23:52.691Z,18.94
2018-09-12T19:26:24.964Z,19.07
2018-09-12T19:28:57.383Z,18.97
2018-09-12T19:31:30.655Z,18.97
2018-09-12T19:34:04.123Z,18.91
2018-09-12T19:36:38.131Z,18.86
2018-09-12T19:39:11.700Z,18.67
2018-09-12T19:41:44.115Z,18.66
2018-09-12T19:44:17.202Z,18.61
2018-09-12T19:46:49.502Z,18.49
2018-09-12T19:49:21.764Z,18.37
2018-09-12T19:51:54.094Z,18.51
2018-09-12T19:54:26.279Z,18.45
2018-09-12T19:56:58.687Z,18.44
2018-09-12T19:59:30.943Z,18.43
2018-09-12T20:02:03.180Z,18.34
2018-09-12T20:04:35.482Z,18.23
2018-09-12T20:07:07.714Z,18.12
2018-09-12T20:09:40.123Z,18.20
2018-09-12T20:12:11.916Z,18.21
2018-09-12T20:14:44.135Z,18.24
2018-09-12T20:17:16.201Z,18.10
2018-09-12T20:19:48.282Z,17.91
2018-09-12T20:22:20.034Z,17.71
2018-09-12T20:24:50.612Z,17.74
2018-09-12T20:27:20.782Z,17.64
2018-09-12T20:29:51.129Z,17.72
2018-09-12T20:32:21.966Z,17.64
2018-09-12T20:34:52.949Z,17.54
2018-09-12T20:37:22.790Z,17.45
2018-09-12T20:39:52.280Z,17.35
2018-09-12T20:42:21.777Z,17.43
2018-09-12T20:44:51.265Z,17.47
2018-09-12T20:47:20.617Z,17.54
2018-09-12T20:49:50.034Z,17.47
2018-09-12T20:52:19.418Z,17.31
2018-09-12T20:54:48.782Z,17.48
2018-09-12T20:57:18.255Z,17.46
2018-09-12T20:59:47.644Z,17.70
2018-09-12T21:02:17.015Z,17.71
2018-09-12T21:04:46.406Z,17.49
2018-09-12T21:07:15.788Z,17.57
2018-09-12T21:09:45.150Z,17.60
2018-09-12T21:12:14.572Z,17.45
2018-09-12T21:14:43.962Z,17.45
2018-09-12T21:17:13.371Z,17.45
2018-09-12T21:19:49.378Z,17.52
2018-09-12T21:22:18.754Z,17.50
2018-09-12T21:24:48.106Z,17.36
2018-09-12T21:27:17.494Z,17.42
2018-09-12T21:29:46.848Z,17.42
2018-09-12T21:32:16.233Z,17.34
2018-09-12T21:34:45.683Z,17.44
2018-09-12T21:37:15.050Z,17.37
2018-09-12T21:39:44.438Z,17.28
2018-09-12T21:42:13.885Z,17.27
2018-09-12T21:44:43.256Z,17.26
2018-09-12T21:47:13.406Z,17.31
2018-09-12T21:49:42.887Z,17.37
2018-09-12T21:52:12.300Z,17.21
2018-09-12T21:54:41.732Z,17.28
2018-09-12T21:57:11.082Z,17.05
2018-09-12T21:59:40.467Z,17.07
2018-09-12T22:02:09.846Z,17.03
2018-09-12T22:04:39.245Z,17.02
2018-09-12T22:07:08.737Z,17.11
2018-09-12T22:09:38.110Z,17.09
2018-09-12T22:12:07.493Z,17.13
2018-09-12T22:14:36.910Z,17.25
2018-09-12T22:17:06.289Z,17.21
2018-09-12T22:19:35.765Z,17.19
2018-09-12T22:22:05.190Z,17.15
2018-09-12T22:24:34.651Z,16.97
2018-09-12T22:27:04.090Z,17.01
2018-09-12T22:29:33.485Z,17.05
2018-09-12T22:32:02.862Z,17.05
2018-09-12T22:34:32.210Z,16.98
2018-09-12T22:37:01.686Z,16.95
2018-09-12T22:39:31.098Z,16.79
2018-09-12T22:42:00.465Z,16.94
2018-09-12T22:44:29.934Z,17.00
2018-09-12T22:46:59.310Z,17.00
2018-09-12T22:49:28.677Z,17.02
2018-09-12T22:51:58.357Z,16.90
2018-09-12T22:54:27.840Z,17.04
2018-09-12T22:56:57.421Z,17.08
2018-09-12T22:59:26.908Z,17.10
2018-09-12T23:01:56.438Z,17.08
2018-09-12T23:04:25.965Z,17.11
2018-09-12T23:06:55.447Z,17.13
2018-09-12T23:09:24.968Z,17.14
2018-09-12T23:11:54.457Z,17.02
2018-09-12T23:14:23.994Z,16.84
2018-09-12T23:16:53.539Z,16.27
2018-09-12T23:19:22.990Z,16.97
2018-09-12T23:21:52.505Z,16.83
2018-09-12T23:24:22.066Z,16.90
2018-09-12T23:26:51.631Z,16.69
2018-09-12T23:29:21.171Z,16.79
2018-09-12T23:31:50.658Z,16.90
2018-09-12T23:34:20.198Z,16.90
2018-09-12T23:36:49.703Z,16.91
2018-09-12T23:39:19.233Z,16.84
2018-09-12T23:41:48.789Z,16.87
2018-09-12T23:44:18.327Z,16.93
2018-09-12T23:46:47.820Z,16.64
2018-09-12T23:49:17.350Z,16.53
2018-09-12T23:51:46.884Z,16.69
2018-09-12T23:54:16.481Z,16.75
2018-09-12T23:56:45.978Z,16.25
2018-09-12T23:59:15.608Z,16.80
